createdAt,value
2019-05-09T00:00:04.589Z,961.19
2019-05-09T00:01:04.621Z,961.27
2019-05-09T00:02:04.857Z,961.27
2019-05-09T00:03:05.407Z,961.24
2019-05-09T00:04:05.491Z,961.13
2019-05-09T00:05:05.562Z,961.19
2019-05-09T00:06:05.094Z,961.19
2019-05-09T00:07:04.732Z,961.27
2019-05-09T00:08:04.910Z,961.27
2019-05-09T00:09:05.349Z,961.24
2019-05-09T00:10:04.721Z,961.10
2019-05-09T00:11:05.200Z,961.19
2019-05-09T00:12:05.279Z,961.19
2019-05-09T00:13:04.495Z,961.27
2019-05-09T00:14:05.172Z,961.25
2019-05-09T00:15:05.104Z,961.16
2019-05-09T00:16:05.189Z,961.16
2019-05-09T00:17:05.135Z,961.25
2019-05-09T00:18:05.249Z,961.22
2019-05-09T00:19:05.401Z,961.25
2019-05-09T00:20:04.524Z,961.16
2019-05-09T00:21:04.619Z,961.22
2019-05-09T00:22:04.844Z,961.19
2019-05-09T00:23:05.078Z,961.13
2019-05-09T00:24:05.153Z,961.30
2019-05-09T00:25:04.682Z,961.25
2019-05-09T00:26:04.933Z,961.16
2019-05-09T00:27:05.106Z,961.22
2019-05-09T00:28:05.202Z,961.13
2019-05-09T00:29:05.250Z,961.11
2019-05-09T00:30:04.682Z,961.19
2019-05-09T00:31:05.148Z,961.22
2019-05-09T00:32:05.287Z,961.16
2019-05-09T00:33:05.469Z,961.31
2019-05-09T00:34:04.984Z,961.19
2019-05-09T00:35:05.254Z,961.14
2019-05-09T00:36:04.890Z,961.08
2019-05-09T00:37:05.056Z,961.17
2019-05-09T00:38:05.473Z,961.37
2019-05-09T00:39:04.565Z,961.22
2019-05-09T00:40:04.721Z,961.40
2019-05-09T00:41:04.630Z,961.37
2019-05-09T00:42:05.139Z,961.45
2019-05-09T00:43:05.448Z,961.34
2019-05-09T00:44:04.583Z,961.43
2019-05-09T00:45:05.077Z,961.40
2019-05-09T00:46:05.248Z,961.46
2019-05-09T00:47:04.667Z,961.37
2019-05-09T00:48:05.000Z,961.46
2019-05-09T00:49:05.559Z,961.35
2019-05-09T00:50:05.570Z,961.43
2019-05-09T00:51:05.382Z,961.40
2019-05-09T00:52:04.849Z,961.43
2019-05-09T00:53:04.473Z,961.49
2019-05-09T00:54:04.815Z,961.40
2019-05-09T00:55:04.861Z,961.46
2019-05-09T00:56:05.265Z,961.46
2019-05-09T00:57:05.282Z,961.49
2019-05-09T00:58:05.467Z,961.40
2019-05-09T00:59:04.863Z,961.40
2019-05-09T01:00:04.751Z,961.40
2019-05-09T01:01:05.002Z,961.29
2019-05-09T01:02:04.809Z,961.26
2019-05-09T01:03:05.347Z,961.29
2019-05-09T01:04:05.100Z,961.40
2019-05-09T01:05:05.182Z,961.38
2019-05-09T01:06:04.926Z,961.40
2019-05-09T01:07:05.155Z,961.29
2019-05-09T01:08:05.160Z,961.35
2019-05-09T01:09:10.365Z,961.43
2019-05-09T01:10:04.792Z,961.46
2019-05-09T01:11:15.200Z,961.55
2019-05-09T01:12:04.601Z,961.43
2019-05-09T01:13:04.635Z,961.35
2019-05-09T01:14:04.873Z,961.40
2019-05-09T01:15:04.994Z,961.29
2019-05-09T01:16:05.109Z,961.43
2019-05-09T01:17:04.725Z,961.49
2019-05-09T01:18:05.024Z,961.43
2019-05-09T01:19:04.732Z,961.46
2019-05-09T01:20:05.018Z,961.38
2019-05-09T01:21:05.039Z,961.38
2019-05-09T01:22:05.027Z,961.38
2019-05-09T01:23:04.873Z,961.40
2019-05-09T01:24:05.218Z,961.37
2019-05-09T01:25:04.652Z,961.46
2019-05-09T01:26:04.981Z,961.35
2019-05-09T01:27:05.170Z,961.46
2019-05-09T01:28:05.307Z,961.38
2019-05-09T01:29:04.934Z,961.40
2019-05-09T01:30:05.248Z,961.43
2019-05-09T01:31:05.078Z,961.38
2019-05-09T01:32:05.092Z,961.41
2019-05-09T01:33:05.205Z,961.41
2019-05-09T01:34:04.588Z,961.38
2019-05-09T01:35:04.768Z,961.44
2019-05-09T01:36:05.180Z,961.41
2019-05-09T01:37:05.230Z,961.52
2019-05-09T01:38:05.210Z,961.52
2019-05-09T01:39:04.501Z,961.55
2019-05-09T01:40:04.645Z,961.61
2019-05-09T01:41:04.792Z,961.56
2019-05-09T01:42:05.265Z,961.58
2019-05-09T01:43:04.989Z,961.61
2019-05-09T01:44:09.836Z,961.56
2019-05-09T01:45:05.227Z,961.44
2019-05-09T01:46:05.177Z,961.39
2019-05-09T01:47:05.346Z,961.39
2019-05-09T01:48:05.469Z,961.41
2019-05-09T01:49:04.471Z,961.44
2019-05-09T01:50:05.211Z,961.50
2019-05-09T01:51:05.094Z,961.45
2019-05-09T01:52:05.152Z,961.58
2019-05-09T01:53:04.873Z,961.53
2019-05-09T01:54:04.711Z,961.41
2019-05-09T01:55:04.870Z,961.39
2019-05-09T01:56:05.117Z,961.50
2019-05-09T01:57:04.755Z,961.47
2019-05-09T01:58:04.726Z,961.56
2019-05-09T01:59:04.772Z,961.47
2019-05-09T02:00:04.889Z,961.59
2019-05-09T02:01:05.033Z,961.59
2019-05-09T02:02:09.250Z,961.56
2019-05-09T02:03:04.687Z,961.73
2019-05-09T02:04:04.728Z,961.56
2019-05-09T02:05:05.396Z,961.56
2019-05-09T02:06:04.835Z,961.56
2019-05-09T02:07:05.158Z,961.45
2019-05-09T02:08:04.522Z,961.56
2019-05-09T02:09:04.898Z,961.50
2019-05-09T02:10:04.776Z,961.45
2019-05-09T02:11:05.275Z,961.48
2019-05-09T02:12:05.128Z,961.56
2019-05-09T02:13:04.622Z,961.62
2019-05-09T02:14:05.148Z,961.62
2019-05-09T02:15:05.309Z,961.51
2019-05-09T02:16:05.416Z,961.53
2019-05-09T02:17:10.452Z,961.56
2019-05-09T02:18:05.676Z,961.56
2019-05-09T02:19:05.324Z,961.70
2019-05-09T02:20:05.316Z,961.51
2019-05-09T02:21:05.078Z,961.53
2019-05-09T02:22:05.227Z,961.51
2019-05-09T02:23:05.291Z,961.71
2019-05-09T02:24:05.491Z,961.74
2019-05-09T02:25:05.506Z,961.54
2019-05-09T02:26:04.506Z,961.68
2019-05-09T02:27:05.125Z,961.56
2019-05-09T02:28:04.599Z,961.65
2019-05-09T02:29:05.077Z,961.48
2019-05-09T02:30:06.429Z,961.71
2019-05-09T02:31:05.823Z,961.57
2019-05-09T02:32:05.241Z,961.54
2019-05-09T02:33:05.565Z,961.60
2019-05-09T02:34:05.530Z,961.65
2019-05-09T02:35:05.547Z,961.51
2019-05-09T02:36:04.920Z,961.60
2019-05-09T02:37:04.687Z,961.66
2019-05-09T02:38:04.721Z,961.63
2019-05-09T02:39:08.455Z,961.63
2019-05-09T02:40:05.097Z,961.69
2019-05-09T02:41:05.055Z,961.71
2019-05-09T02:42:13.856Z,961.77
2019-05-09T02:43:04.577Z,961.69
2019-05-09T02:44:05.162Z,961.60
2019-05-09T02:45:08.028Z,961.63
2019-05-09T02:46:05.583Z,961.60
2019-05-09T02:47:05.333Z,961.49
2019-05-09T02:48:05.038Z,961.49
2019-05-09T02:49:08.412Z,961.35
2019-05-09T02:50:08.426Z,961.37
2019-05-09T02:51:05.202Z,961.49
2019-05-09T02:52:04.682Z,961.34
2019-05-09T02:53:08.464Z,961.51
2019-05-09T02:54:04.975Z,961.35
2019-05-09T02:55:05.222Z,961.57
2019-05-09T02:56:04.517Z,961.60
2019-05-09T02:57:05.093Z,961.55
2019-05-09T02:58:08.467Z,961.69
2019-05-09T02:59:05.298Z,961.63
2019-05-09T03:00:04.667Z,961.69
2019-05-09T03:01:04.672Z,961.69
2019-05-09T03:02:05.271Z,961.55
2019-05-09T03:03:04.581Z,961.75
2019-05-09T03:04:10.029Z,961.69
2019-05-09T03:05:04.490Z,961.75
2019-05-09T03:06:04.639Z,961.55
2019-05-09T03:07:04.830Z,961.63
2019-05-09T03:08:04.944Z,961.52
2019-05-09T03:09:04.676Z,961.64
2019-05-09T03:10:04.562Z,961.52
2019-05-09T03:11:04.929Z,961.55
2019-05-09T03:12:30.731Z,961.66
2019-05-09T03:13:04.755Z,961.64
2019-05-09T03:14:05.354Z,961.67
2019-05-09T03:15:05.102Z,961.72
2019-05-09T03:16:08.883Z,961.61
2019-05-09T03:17:04.683Z,961.78
2019-05-09T03:18:04.645Z,961.75
2019-05-09T03:19:05.178Z,961.64
2019-05-09T03:20:04.636Z,961.61
2019-05-09T03:21:04.828Z,961.73
2019-05-09T03:22:05.019Z,961.58
2019-05-09T03:23:04.634Z,961.70
2019-05-09T03:24:05.269Z,961.64
2019-05-09T03:25:05.201Z,961.56
2019-05-09T03:26:04.967Z,961.67
2019-05-09T03:27:08.199Z,961.59
2019-05-09T03:28:05.565Z,961.79
2019-05-09T03:29:05.122Z,961.65
2019-05-09T03:30:04.854Z,961.70
2019-05-09T03:31:08.453Z,961.73
2019-05-09T03:32:04.630Z,961.68
2019-05-09T03:33:05.177Z,961.54
2019-05-09T03:34:04.810Z,961.65
2019-05-09T03:35:04.850Z,961.76
2019-05-09T03:36:07.256Z,961.56
2019-05-09T03:37:04.840Z,961.62
2019-05-09T03:38:07.704Z,961.68
2019-05-09T03:39:04.780Z,961.68
2019-05-09T03:40:04.876Z,961.65
2019-05-09T03:41:04.937Z,961.60
2019-05-09T03:42:04.959Z,961.63
2019-05-09T03:43:04.745Z,961.74
2019-05-09T03:44:14.810Z,961.66
2019-05-09T03:45:05.261Z,961.77
2019-05-09T03:46:04.750Z,961.66
2019-05-09T03:47:05.394Z,961.60
2019-05-09T03:48:07.677Z,961.60
2019-05-09T03:49:07.880Z,961.63
2019-05-09T03:50:04.564Z,961.58
2019-05-09T03:51:05.088Z,961.52
2019-05-09T03:52:07.283Z,961.55
2019-05-09T03:53:05.209Z,961.63
2019-05-09T03:54:07.768Z,961.78
2019-05-09T03:55:07.684Z,961.69
2019-05-09T03:56:05.313Z,961.75
2019-05-09T03:57:04.885Z,961.73
2019-05-09T03:58:07.738Z,961.81
2019-05-09T03:59:05.393Z,961.70
2019-05-09T04:00:07.480Z,961.78
2019-05-09T04:01:04.633Z,961.81
2019-05-09T04:02:04.616Z,961.79
2019-05-09T04:03:04.668Z,961.73
2019-05-09T04:04:05.168Z,961.79
2019-05-09T04:05:04.716Z,961.82
2019-05-09T04:06:07.985Z,961.85
2019-05-09T04:07:05.311Z,961.79
2019-05-09T04:08:04.932Z,961.77
2019-05-09T04:09:07.762Z,961.94
2019-05-09T04:10:08.066Z,961.82
2019-05-09T04:11:04.731Z,962.05
2019-05-09T04:12:07.160Z,961.91
2019-05-09T04:13:04.726Z,961.97
2019-05-09T04:14:04.832Z,961.91
2019-05-09T04:15:05.309Z,962.08
2019-05-09T04:16:07.283Z,962.02
2019-05-09T04:17:07.634Z,962.14
2019-05-09T04:18:04.871Z,962.05
2019-05-09T04:19:05.266Z,962.08
2019-05-09T04:20:08.006Z,962.14
2019-05-09T04:21:05.131Z,962.08
2019-05-09T04:22:07.751Z,962.06
2019-05-09T04:23:05.212Z,962.06
2019-05-09T04:24:04.604Z,962.03
2019-05-09T04:25:08.228Z,962.03
2019-05-09T04:26:06.993Z,962.09
2019-05-09T04:27:04.938Z,962.09
2019-05-09T04:28:07.804Z,962.03
2019-05-09T04:29:05.259Z,962.14
2019-05-09T04:30:09.494Z,962.06
2019-05-09T04:31:07.707Z,962.06
2019-05-09T04:32:05.009Z,961.95
2019-05-09T04:33:04.552Z,962.06
2019-05-09T04:34:04.915Z,962.03
2019-05-09T04:35:05.036Z,961.98
2019-05-09T04:36:05.388Z,962.01
2019-05-09T04:37:04.985Z,961.98
2019-05-09T04:38:06.899Z,962.15
2019-05-09T04:39:04.696Z,961.98
2019-05-09T04:40:04.667Z,961.92
2019-05-09T04:41:07.816Z,962.09
2019-05-09T04:42:08.427Z,961.98
2019-05-09T04:43:22.862Z,961.98
2019-05-09T04:44:14.162Z,962.04
2019-05-09T04:45:10.362Z,961.95
2019-05-09T04:46:05.413Z,962.03
2019-05-09T04:47:04.775Z,962.03
2019-05-09T04:48:07.203Z,961.89
2019-05-09T04:49:04.901Z,961.89
2019-05-09T04:50:07.423Z,961.89
2019-05-09T04:51:04.485Z,962.00
2019-05-09T04:52:07.956Z,961.92
2019-05-09T04:53:04.644Z,961.83
2019-05-09T04:54:07.662Z,962.06
2019-05-09T04:55:07.666Z,962.03
2019-05-09T04:56:06.700Z,961.89
2019-05-09T04:57:07.144Z,962.00
2019-05-09T04:58:05.049Z,962.17
2019-05-09T04:59:07.442Z,962.08
2019-05-09T05:00:07.497Z,962.17
2019-05-09T05:01:06.739Z,962.11
2019-05-09T05:02:04.999Z,962.27
2019-05-09T05:03:05.360Z,962.08
2019-05-09T05:04:09.865Z,962.27
2019-05-09T05:05:07.535Z,962.16
2019-05-09T05:06:04.753Z,962.08
2019-05-09T05:07:04.626Z,962.27
2019-05-09T05:08:05.061Z,962.13
2019-05-09T05:09:05.112Z,962.21
2019-05-09T05:10:08.304Z,962.27
2019-05-09T05:11:06.866Z,962.35
2019-05-09T05:12:05.462Z,962.32
2019-05-09T05:13:05.300Z,962.29
2019-05-09T05:14:08.887Z,962.29
2019-05-09T05:15:07.418Z,962.23
2019-05-09T05:16:05.250Z,962.29
2019-05-09T05:17:11.446Z,962.32
2019-05-09T05:18:05.465Z,962.01
2019-05-09T05:19:07.318Z,962.18
2019-05-09T05:20:05.380Z,962.13
2019-05-09T05:21:04.816Z,962.18
2019-05-09T05:22:04.801Z,962.18
2019-05-09T05:23:05.239Z,962.28
2019-05-09T05:24:05.231Z,962.12
2019-05-09T05:25:04.777Z,962.09
2019-05-09T05:26:05.284Z,962.22
2019-05-09T05:27:05.273Z,962.12
2019-05-09T05:28:05.436Z,962.06
2019-05-09T05:29:05.311Z,962.17
2019-05-09T05:30:07.760Z,962.00
2019-05-09T05:31:04.612Z,962.06
2019-05-09T05:32:04.743Z,962.00
2019-05-09T05:33:05.083Z,962.02
2019-05-09T05:34:05.066Z,962.11
2019-05-09T05:35:07.820Z,962.08
2019-05-09T05:36:04.628Z,961.99
2019-05-09T05:37:04.881Z,962.02
2019-05-09T05:38:04.815Z,962.13
2019-05-09T05:39:04.720Z,962.12
2019-05-09T05:40:08.101Z,962.18
2019-05-09T05:41:04.943Z,962.12
2019-05-09T05:42:04.988Z,962.31
2019-05-09T05:43:04.975Z,962.21
2019-05-09T05:44:10.090Z,962.16
2019-05-09T05:45:04.619Z,962.27
2019-05-09T05:46:04.473Z,962.18
2019-05-09T05:47:04.639Z,962.20
2019-05-09T05:48:04.842Z,962.34
2019-05-09T05:49:04.961Z,962.19
2019-05-09T05:50:04.904Z,962.19
2019-05-09T05:51:05.123Z,962.27
2019-05-09T05:52:05.207Z,962.16
2019-05-09T05:53:05.061Z,962.37
2019-05-09T05:54:08.094Z,962.36
2019-05-09T05:55:07.799Z,962.19
2019-05-09T05:56:04.699Z,962.19
2019-05-09T05:57:04.829Z,962.17
2019-05-09T05:58:04.779Z,962.19
2019-05-09T05:59:04.672Z,962.18
2019-05-09T06:00:08.163Z,962.30
2019-05-09T06:01:05.221Z,962.23
2019-05-09T06:02:04.804Z,962.40
2019-05-09T06:03:05.306Z,962.36
2019-05-09T06:04:07.888Z,962.38
2019-05-09T06:05:04.594Z,962.47
2019-05-09T06:06:05.533Z,962.35
2019-05-09T06:07:07.629Z,962.43
2019-05-09T06:08:05.048Z,962.23
2019-05-09T06:09:05.183Z,962.31
2019-05-09T06:10:05.113Z,962.20
2019-05-09T06:11:12.178Z,962.37
2019-05-09T06:12:04.941Z,962.28
2019-05-09T06:13:04.922Z,962.31
2019-05-09T06:14:12.010Z,962.37
2019-05-09T06:15:04.862Z,962.34
2019-05-09T06:16:09.686Z,962.39
2019-05-09T06:17:07.520Z,962.44
2019-05-09T06:18:07.655Z,962.43
2019-05-09T06:19:05.189Z,962.40
2019-05-09T06:20:05.500Z,962.28
2019-05-09T06:21:04.996Z,962.47
2019-05-09T06:22:05.088Z,962.32
2019-05-09T06:23:04.820Z,962.34
2019-05-09T06:24:05.419Z,962.44
2019-05-09T06:25:04.571Z,962.41
2019-05-09T06:26:10.426Z,962.46
2019-05-09T06:27:10.511Z,962.37
2019-05-09T06:28:07.099Z,962.43
2019-05-09T06:29:04.751Z,962.43
2019-05-09T06:30:05.008Z,962.48
2019-05-09T06:31:04.784Z,962.47
2019-05-09T06:32:04.724Z,962.48
2019-05-09T06:33:05.644Z,962.45
2019-05-09T06:34:08.022Z,962.49
2019-05-09T06:35:04.489Z,962.49
2019-05-09T06:36:05.115Z,962.37
2019-05-09T06:37:08.528Z,962.31
2019-05-09T06:38:07.664Z,962.36
2019-05-09T06:39:05.054Z,962.39
2019-05-09T06:40:05.119Z,962.46
2019-05-09T06:41:04.633Z,962.37
2019-05-09T06:42:04.617Z,962.37
2019-05-09T06:43:04.890Z,962.53
2019-05-09T06:44:20.534Z,962.43
2019-05-09T06:45:07.919Z,962.54
2019-05-09T06:46:04.567Z,962.41
2019-05-09T06:47:04.939Z,962.51
2019-05-09T06:48:07.410Z,962.44
2019-05-09T06:49:29.011Z,962.39
2019-05-09T06:50:05.082Z,962.50
2019-05-09T06:51:04.525Z,962.53
2019-05-09T06:52:05.263Z,962.43
2019-05-09T06:53:04.722Z,962.48
2019-05-09T06:54:04.882Z,962.57
2019-05-09T06:55:05.021Z,962.48
2019-05-09T06:56:07.729Z,962.47
2019-05-09T06:57:04.650Z,962.60
2019-05-09T06:58:04.882Z,962.47
2019-05-09T06:59:07.035Z,962.49
2019-05-09T07:00:05.231Z,962.55
2019-05-09T07:01:07.937Z,962.45
2019-05-09T07:02:04.836Z,962.52
2019-05-09T07:03:07.456Z,962.61
2019-05-09T07:04:05.257Z,962.42
2019-05-09T07:05:04.631Z,962.40
2019-05-09T07:06:05.516Z,962.48
2019-05-09T07:07:07.664Z,962.46
2019-05-09T07:08:04.988Z,962.37
2019-05-09T07:09:05.351Z,962.37
2019-05-09T07:10:07.315Z,962.48
2019-05-09T07:11:04.587Z,962.44
2019-05-09T07:12:08.135Z,962.40
2019-05-09T07:13:04.987Z,962.48
2019-05-09T07:14:04.971Z,962.33
2019-05-09T07:15:05.551Z,962.18
2019-05-09T07:16:04.780Z,962.42
2019-05-09T07:17:07.790Z,962.37
2019-05-09T07:18:07.865Z,962.36
2019-05-09T07:19:05.190Z,962.30
2019-05-09T07:20:05.149Z,962.23
2019-05-09T07:21:05.359Z,962.31
2019-05-09T07:22:04.896Z,962.19
2019-05-09T07:23:04.954Z,962.07
2019-05-09T07:24:05.005Z,962.18
2019-05-09T07:25:11.335Z,962.14
2019-05-09T07:26:07.966Z,962.11
2019-05-09T07:27:07.147Z,962.32
2019-05-09T07:28:04.764Z,962.16
2019-05-09T07:29:04.671Z,962.23
2019-05-09T07:30:07.954Z,962.28
2019-05-09T07:31:04.880Z,962.27
2019-05-09T07:32:06.962Z,962.16
2019-05-09T07:33:04.808Z,962.29
2019-05-09T07:34:04.868Z,962.19
2019-05-09T07:35:05.571Z,962.28
2019-05-09T07:36:04.828Z,962.19
2019-05-09T07:37:05.159Z,962.08
2019-05-09T07:38:05.470Z,962.19
2019-05-09T07:39:04.665Z,962.13
2019-05-09T07:40:05.442Z,962.13
2019-05-09T07:41:09.214Z,962.20
2019-05-09T07:42:05.311Z,962.18
2019-05-09T07:43:04.657Z,962.31
2019-05-09T07:44:04.634Z,962.14
2019-05-09T07:45:04.694Z,962.27
2019-05-09T07:46:04.588Z,962.18
2019-05-09T07:47:07.206Z,962.20
2019-05-09T07:48:04.783Z,962.20
2019-05-09T07:49:05.239Z,962.17
2019-05-09T07:50:07.780Z,962.19
2019-05-09T07:51:04.498Z,962.19
2019-05-09T07:52:10.431Z,962.19
2019-05-09T07:53:05.317Z,962.19
2019-05-09T07:54:25.398Z,962.16
2019-05-09T07:55:05.244Z,962.18
2019-05-09T07:56:04.725Z,962.15
2019-05-09T07:57:04.540Z,962.28
2019-05-09T07:58:04.612Z,962.31
2019-05-09T07:59:07.425Z,962.31
2019-05-09T08:00:04.714Z,962.22
2019-05-09T08:01:05.354Z,962.19
2019-05-09T08:02:04.502Z,962.17
2019-05-09T08:03:07.876Z,962.17
2019-05-09T08:04:04.572Z,962.17
2019-05-09T08:05:04.768Z,962.33
2019-05-09T08:06:04.978Z,962.27
2019-05-09T08:07:07.711Z,962.05
2019-05-09T08:08:07.323Z,962.19
2019-05-09T08:09:05.304Z,962.10
2019-05-09T08:10:05.451Z,962.19
2019-05-09T08:11:05.110Z,962.33
2019-05-09T08:12:06.909Z,962.13
2019-05-09T08:13:11.928Z,962.13
2019-05-09T08:14:04.919Z,962.19
2019-05-09T08:15:20.129Z,962.23
2019-05-09T08:16:04.981Z,962.20
2019-05-09T08:17:04.717Z,962.32
2019-05-09T08:18:05.062Z,962.19
2019-05-09T08:19:04.684Z,962.31
2019-05-09T08:20:07.644Z,962.38
2019-05-09T08:21:05.194Z,962.44
2019-05-09T08:22:05.182Z,962.38
2019-05-09T08:23:09.917Z,962.30
2019-05-09T08:24:04.907Z,962.39
2019-05-09T08:25:05.192Z,962.39
2019-05-09T08:26:05.343Z,962.31
2019-05-09T08:27:05.357Z,962.31
2019-05-09T08:28:05.386Z,962.22
2019-05-09T08:29:05.414Z,962.28
2019-05-09T08:30:07.545Z,962.34
2019-05-09T08:31:07.490Z,962.37
2019-05-09T08:32:07.793Z,962.22
2019-05-09T08:33:08.549Z,962.28
2019-05-09T08:34:05.324Z,962.11
2019-05-09T08:35:05.038Z,962.30
2019-05-09T08:36:04.818Z,962.33
2019-05-09T08:37:07.847Z,962.42
2019-05-09T08:38:05.423Z,962.34
2019-05-09T08:39:05.120Z,962.19
2019-05-09T08:40:07.714Z,962.35
2019-05-09T08:41:05.169Z,962.41
2019-05-09T08:42:07.726Z,962.42
2019-05-09T08:43:04.498Z,962.34
2019-05-09T08:44:08.355Z,962.35
2019-05-09T08:45:05.127Z,962.49
2019-05-09T08:46:07.279Z,962.43
2019-05-09T08:47:05.138Z,962.35
2019-05-09T08:48:05.433Z,962.27
2019-05-09T08:49:07.863Z,962.34
2019-05-09T08:50:07.352Z,962.35
2019-05-09T08:51:04.884Z,962.27
2019-05-09T08:52:17.055Z,962.50
2019-05-09T08:53:05.111Z,962.36
2019-05-09T08:54:05.259Z,962.36
2019-05-09T08:55:04.808Z,962.30
2019-05-09T08:56:04.883Z,962.36
2019-05-09T08:57:08.109Z,962.30
2019-05-09T08:58:04.968Z,962.36
2019-05-09T08:59:07.992Z,962.44
2019-05-09T09:00:05.362Z,962.30
2019-05-09T09:01:05.021Z,962.21
2019-05-09T09:02:19.317Z,962.46
2019-05-09T09:03:04.939Z,962.40
2019-05-09T09:04:05.036Z,962.51
2019-05-09T09:05:05.170Z,962.43
2019-05-09T09:06:04.560Z,962.41
2019-05-09T09:07:05.267Z,962.44
2019-05-09T09:08:04.980Z,962.35
2019-05-09T09:09:07.450Z,962.52
2019-05-09T09:10:04.488Z,962.48
2019-05-09T09:11:05.414Z,962.48
2019-05-09T09:12:31.041Z,962.40
2019-05-09T09:13:05.240Z,962.32
2019-05-09T09:14:07.606Z,962.37
2019-05-09T09:15:04.771Z,962.37
2019-05-09T09:16:22.136Z,962.42
2019-05-09T09:17:05.149Z,962.47
2019-05-09T09:18:08.227Z,962.35
2019-05-09T09:19:04.747Z,962.48
2019-05-09T09:20:07.943Z,962.46
2019-05-09T09:21:04.737Z,962.53
2019-05-09T09:22:05.185Z,962.52
2019-05-09T09:23:10.506Z,962.44
2019-05-09T09:24:05.121Z,962.44
2019-05-09T09:25:04.726Z,962.57
2019-05-09T09:26:04.813Z,962.51
2019-05-09T09:27:07.416Z,962.57
2019-05-09T09:28:04.582Z,962.48
2019-05-09T09:29:04.730Z,962.49
2019-05-09T09:30:24.576Z,962.63
2019-05-09T09:31:08.390Z,962.66
2019-05-09T09:32:05.075Z,962.47
2019-05-09T09:33:04.958Z,962.52
2019-05-09T09:34:04.715Z,962.52
2019-05-09T09:35:04.506Z,962.55
2019-05-09T09:36:04.948Z,962.52
2019-05-09T09:37:10.924Z,962.44
2019-05-09T09:38:05.203Z,962.54
2019-05-09T09:39:07.785Z,962.48
2019-05-09T09:40:05.343Z,962.43
2019-05-09T09:41:04.685Z,962.45
2019-05-09T09:42:04.801Z,962.55
2019-05-09T09:43:04.975Z,962.47
2019-05-09T09:44:05.336Z,962.52
2019-05-09T09:45:04.758Z,962.54
2019-05-09T09:46:14.866Z,962.46
2019-05-09T09:47:07.147Z,962.43
2019-05-09T09:48:05.467Z,962.51
2019-05-09T09:49:04.505Z,962.46
2019-05-09T09:50:05.028Z,962.53
2019-05-09T09:51:05.030Z,962.42
2019-05-09T09:52:04.558Z,962.50
2019-05-09T09:53:04.953Z,962.55
2019-05-09T09:54:04.958Z,962.58
2019-05-09T09:55:04.783Z,962.64
2019-05-09T09:56:05.145Z,962.55
2019-05-09T09:57:04.822Z,962.72
2019-05-09T09:58:04.579Z,962.70
2019-05-09T09:59:05.099Z,962.62
2019-05-09T10:00:07.332Z,962.59
2019-05-09T10:01:04.678Z,962.57
2019-05-09T10:02:09.836Z,962.60
2019-05-09T10:03:05.246Z,962.69
2019-05-09T10:04:23.675Z,962.69
2019-05-09T10:05:04.789Z,962.69
2019-05-09T10:06:04.938Z,962.73
2019-05-09T10:07:05.251Z,962.59
2019-05-09T10:08:05.015Z,962.62
2019-05-09T10:09:04.735Z,962.65
2019-05-09T10:10:07.237Z,962.70
2019-05-09T10:11:04.667Z,962.73
2019-05-09T10:12:05.357Z,962.64
2019-05-09T10:13:05.069Z,962.70
2019-05-09T10:14:07.718Z,962.70
2019-05-09T10:15:04.924Z,962.65
2019-05-09T10:16:05.299Z,962.57
2019-05-09T10:17:05.674Z,962.63
2019-05-09T10:18:07.269Z,962.63
2019-05-09T10:19:05.443Z,962.60
2019-05-09T10:20:05.140Z,962.68
2019-05-09T10:21:04.675Z,962.74
2019-05-09T10:22:05.376Z,962.77
2019-05-09T10:23:20.745Z,962.69
2019-05-09T10:24:04.851Z,962.75
2019-05-09T10:25:07.641Z,962.58
2019-05-09T10:26:05.161Z,962.85
2019-05-09T10:27:05.067Z,962.68
2019-05-09T10:28:05.485Z,962.62
2019-05-09T10:29:04.867Z,962.68
2019-05-09T10:30:04.736Z,962.60
2019-05-09T10:31:05.213Z,962.69
2019-05-09T10:32:05.216Z,962.75
2019-05-09T10:33:05.318Z,962.75
2019-05-09T10:34:05.227Z,962.63
2019-05-09T10:35:05.065Z,962.66
2019-05-09T10:36:07.749Z,962.51
2019-05-09T10:37:07.502Z,962.48
2019-05-09T10:38:09.088Z,962.51
2019-05-09T10:39:05.059Z,962.48
2019-05-09T10:40:04.518Z,962.48
2019-05-09T10:41:05.172Z,962.49
2019-05-09T10:42:05.352Z,962.38
2019-05-09T10:43:04.935Z,962.37
2019-05-09T10:44:05.108Z,962.37
2019-05-09T10:45:04.814Z,962.48
2019-05-09T10:46:04.629Z,962.47
2019-05-09T10:47:05.203Z,962.41
2019-05-09T10:48:05.135Z,962.35
2019-05-09T10:49:08.606Z,962.31
2019-05-09T10:50:05.390Z,962.37
2019-05-09T10:51:10.401Z,962.42
2019-05-09T10:52:05.445Z,962.47
2019-05-09T10:53:04.768Z,962.38
2019-05-09T10:54:07.740Z,962.54
2019-05-09T10:55:05.286Z,962.35
2019-05-09T10:56:08.400Z,962.37
2019-05-09T10:57:04.987Z,962.37
2019-05-09T10:58:07.731Z,962.22
2019-05-09T10:59:07.079Z,962.45
2019-05-09T11:00:08.302Z,962.45
2019-05-09T11:01:04.899Z,962.36
2019-05-09T11:02:09.972Z,962.36
2019-05-09T11:03:04.527Z,962.36
2019-05-09T11:04:04.661Z,962.36
2019-05-09T11:05:04.692Z,962.30
2019-05-09T11:06:05.109Z,962.39
2019-05-09T11:07:04.655Z,962.44
2019-05-09T11:08:07.786Z,962.21
2019-05-09T11:09:05.144Z,962.36
2019-05-09T11:10:27.673Z,962.19
2019-05-09T11:11:09.282Z,962.20
2019-05-09T11:12:08.490Z,962.29
2019-05-09T11:13:07.742Z,962.31
2019-05-09T11:14:05.504Z,962.28
2019-05-09T11:15:04.482Z,962.19
2019-05-09T11:16:07.501Z,962.36
2019-05-09T11:17:17.863Z,962.30
2019-05-09T11:18:04.543Z,962.13
2019-05-09T11:19:07.643Z,962.19
2019-05-09T11:20:05.060Z,962.15
2019-05-09T11:21:04.622Z,962.15
2019-05-09T11:22:08.298Z,962.15
2019-05-09T11:23:10.212Z,962.11
2019-05-09T11:24:04.737Z,962.14
2019-05-09T11:25:05.602Z,962.05
2019-05-09T11:26:05.039Z,962.05
2019-05-09T11:27:05.020Z,962.16
2019-05-09T11:28:14.261Z,962.11
2019-05-09T11:29:04.919Z,962.11
2019-05-09T11:30:05.013Z,962.17
2019-05-09T11:31:07.707Z,962.05
2019-05-09T11:32:04.838Z,962.03
2019-05-09T11:33:07.586Z,962.11
2019-05-09T11:34:04.811Z,962.17
2019-05-09T11:35:05.003Z,962.03
2019-05-09T11:36:04.788Z,962.11
2019-05-09T11:37:04.728Z,962.02
2019-05-09T11:38:05.033Z,962.05
2019-05-09T11:39:11.068Z,962.04
2019-05-09T11:40:05.036Z,962.15
2019-05-09T11:41:05.296Z,962.29
2019-05-09T11:42:05.013Z,962.23
2019-05-09T11:43:05.182Z,962.12
2019-05-09T11:44:04.586Z,962.11
2019-05-09T11:45:04.633Z,962.14
2019-05-09T11:46:04.985Z,962.14
2019-05-09T11:47:04.733Z,962.05
2019-05-09T11:48:04.826Z,962.08
2019-05-09T11:49:04.952Z,962.05
2019-05-09T11:50:04.990Z,962.06
2019-05-09T11:51:04.839Z,962.09
2019-05-09T11:52:05.014Z,962.15
2019-05-09T11:53:05.317Z,962.06
2019-05-09T11:54:04.587Z,961.98
2019-05-09T11:55:05.064Z,962.15
2019-05-09T11:56:05.012Z,962.01
2019-05-09T11:57:07.851Z,962.06
2019-05-09T11:58:08.083Z,962.12
2019-05-09T11:59:07.600Z,962.31
2019-05-09T12:00:04.877Z,962.03
2019-05-09T12:01:04.753Z,962.03
2019-05-09T12:02:04.975Z,962.09
2019-05-09T12:03:04.877Z,962.14
2019-05-09T12:04:05.046Z,962.17
2019-05-09T12:05:05.061Z,962.11
2019-05-09T12:06:07.328Z,962.05
2019-05-09T12:07:07.647Z,961.90
2019-05-09T12:08:04.896Z,962.10
2019-05-09T12:09:04.976Z,961.98
2019-05-09T12:10:04.648Z,961.89
2019-05-09T12:11:04.700Z,961.95
2019-05-09T12:12:05.463Z,962.00
2019-05-09T12:13:04.745Z,962.03
2019-05-09T12:14:05.041Z,962.09
2019-05-09T12:15:05.321Z,962.00
2019-05-09T12:16:05.490Z,962.09
2019-05-09T12:17:04.912Z,961.95
2019-05-09T12:18:11.832Z,961.92
2019-05-09T12:19:05.573Z,961.96
2019-05-09T12:20:13.654Z,961.93
2019-05-09T12:21:05.370Z,961.84
2019-05-09T12:22:05.512Z,961.90
2019-05-09T12:23:04.723Z,961.96
2019-05-09T12:24:04.646Z,961.93
2019-05-09T12:25:04.856Z,962.02
2019-05-09T12:26:07.997Z,961.90
2019-05-09T12:27:05.288Z,962.02
2019-05-09T12:28:04.663Z,962.05